createdAt,value
2022-09-15T00:01:15.515Z,99264.41
2022-09-15T00:04:31.507Z,99258.25
2022-09-15T00:07:33.942Z,99246.25
2022-09-15T00:11:28.515Z,99236.56
2022-09-15T00:14:43.506Z,99205.84
2022-09-15T00:17:56.524Z,99201.13
2022-09-15T00:21:18.525Z,99191.38
2022-09-15T00:24:20.724Z,99142.28
2022-09-15T00:27:42.539Z,99169.03
2022-09-15T00:30:47.657Z,99183.69
2022-09-15T00:34:05.562Z,99207.72
2022-09-15T00:37:20.536Z,99228.66
2022-09-15T00:40:29.276Z,99221.25
2022-09-15T00:43:57.523Z,99243.41
2022-09-15T00:47:18.280Z,99251.56
2022-09-15T00:50:34.516Z,99264.38
2022-09-15T00:53:50.562Z,99284.56
2022-09-15T00:56:56.991Z,99298.19
2022-09-15T01:00:16.494Z,99295.50
2022-09-15T01:03:26.102Z,99300.94
2022-09-15T01:06:44.549Z,99289.28
2022-09-15T01:09:59.519Z,99289.28
2022-09-15T01:13:11.632Z,99294.38
2022-09-15T01:20:20.238Z,99293.25
2022-09-15T01:23:34.487Z,99279.25
2022-09-15T01:26:52.480Z,99280.41
2022-09-15T01:30:14.986Z,99283.50
2022-09-15T01:33:51.504Z,99281.56
2022-09-15T01:37:24.487Z,99268.31
2022-09-15T01:40:40.044Z,99272.22
2022-09-15T01:44:01.547Z,99268.28
2022-09-15T01:47:14.868Z,99274.88
2022-09-15T01:50:29.560Z,99283.78
2022-09-15T01:53:38.603Z,99287.66
2022-09-15T01:56:47.538Z,99292.69
2022-09-15T01:59:56.762Z,99281.00
2022-09-15T02:03:11.580Z,99289.56
2022-09-15T02:07:02.258Z,99293.06
2022-09-15T02:10:16.564Z,99293.81
2022-09-15T02:13:31.542Z,99294.19
2022-09-15T02:16:35.840Z,99286.03
2022-09-15T02:20:09.546Z,99293.06
2022-09-15T02:23:24.554Z,99297.31
2022-09-15T02:26:42.101Z,99299.63
2022-09-15T02:29:54.548Z,99298.81
2022-09-15T02:33:06.545Z,99293.72
2022-09-15T02:36:25.540Z,99298.34
2022-09-15T02:39:39.527Z,99291.78
2022-09-15T02:43:00.559Z,99287.88
2022-09-15T02:46:15.610Z,99297.63
2022-09-15T02:49:17.771Z,99302.25
2022-09-15T02:52:32.556Z,99304.56
2022-09-15T02:55:41.367Z,99306.91
2022-09-15T02:58:50.546Z,99293.31
2022-09-15T03:02:05.593Z,99295.69
2022-09-15T03:05:22.540Z,99300.34
2022-09-15T03:08:37.566Z,99297.63
2022-09-15T03:11:39.689Z,99296.81
2022-09-15T03:14:55.580Z,99297.22
2022-09-15T03:18:04.549Z,99295.62
2022-09-15T03:21:15.045Z,99291.31
2022-09-15T03:24:29.572Z,99297.47
2022-09-15T03:27:45.150Z,99296.66
2022-09-15T03:30:53.555Z,99304.38
2022-09-15T03:34:02.348Z,99302.84
2022-09-15T03:37:11.565Z,99303.19
2022-09-15T03:40:27.645Z,99295.78
2022-09-15T03:43:31.146Z,99293.50
2022-09-15T03:46:45.563Z,99296.62
2022-09-15T03:49:54.522Z,99291.19
2022-09-15T03:53:03.542Z,99284.13
2022-09-15T03:56:18.262Z,99299.66
2022-09-15T03:59:32.541Z,99293.38
2022-09-15T04:02:34.962Z,99300.78
2022-09-15T04:05:49.573Z,99298.06
2022-09-15T04:08:53.407Z,99287.19
2022-09-15T04:12:09.579Z,99302.00
2022-09-15T04:15:20.447Z,99307.47
2022-09-15T04:18:36.551Z,99310.59
2022-09-15T04:21:45.372Z,99304.06
2022-09-15T04:24:54.565Z,99299.44
2022-09-15T04:28:16.581Z,99308.03
2022-09-15T04:31:31.637Z,99304.94
2022-09-15T04:34:46.568Z,99299.50
2022-09-15T04:37:49.041Z,99315.44
2022-09-15T04:41:05.563Z,99325.94
2022-09-15T04:44:14.561Z,99339.94
2022-09-15T04:47:23.682Z,99344.97
2022-09-15T04:50:38.561Z,99344.22
2022-09-15T04:53:40.817Z,99343.50
2022-09-15T04:56:56.566Z,99327.19
2022-09-15T05:00:12.579Z,99330.69
2022-09-15T05:03:27.571Z,99316.31
2022-09-15T05:06:45.590Z,99300.44
2022-09-15T05:09:47.617Z,99304.69
2022-09-15T05:13:02.598Z,99319.47
2022-09-15T05:16:16.801Z,99319.53
2022-09-15T05:19:31.572Z,99331.97
2022-09-15T05:22:46.584Z,99336.25
2022-09-15T05:26:00.576Z,99347.97
2022-09-15T05:29:22.568Z,99362.03
2022-09-15T05:32:24.799Z,99368.63
2022-09-15T05:35:39.575Z,99365.22
2022-09-15T05:38:48.352Z,99380.28
2022-09-15T05:41:56.591Z,99402.84
2022-09-15T05:45:05.895Z,99386.53
2022-09-15T05:48:15.555Z,99374.16
2022-09-15T05:51:24.891Z,99382.72
2022-09-15T05:54:33.586Z,99393.66
2022-09-15T05:57:42.319Z,99372.72
2022-09-15T06:00:50.585Z,99375.13
2022-09-15T06:04:05.606Z,99366.59
2022-09-15T06:07:21.582Z,99372.94
2022-09-15T06:10:30.614Z,99375.06
2022-09-15T06:13:46.576Z,99376.22
2022-09-15T06:17:01.605Z,99380.91
2022-09-15T06:20:10.636Z,99389.09
2022-09-15T06:23:25.606Z,99389.16
2022-09-15T06:26:28.445Z,99393.41
2022-09-15T06:29:50.581Z,99386.75
2022-09-15T06:32:52.472Z,99387.91
2022-09-15T06:36:08.528Z,99409.31
2022-09-15T06:39:23.588Z,99405.44
2022-09-15T06:42:32.591Z,99405.47
2022-09-15T06:45:41.374Z,99406.72
2022-09-15T06:48:50.581Z,99411.03
2022-09-15T06:52:06.613Z,99412.63
2022-09-15T06:55:15.281Z,99406.06
2022-09-15T06:58:29.592Z,99401.41
2022-09-15T07:01:32.696Z,99411.16
2022-09-15T07:04:47.592Z,99417.13
2022-09-15T07:07:56.186Z,99421.87
2022-09-15T07:11:10.605Z,99410.28
2022-09-15T07:14:25.606Z,99414.22
2022-09-15T07:17:28.837Z,99417.81
2022-09-15T07:20:45.585Z,99420.59
2022-09-15T07:24:07.378Z,99416.78
2022-09-15T07:27:09.610Z,99428.53
2022-09-15T07:30:31.613Z,99435.56
2022-09-15T07:33:46.598Z,99445.09
2022-09-15T07:37:01.625Z,99443.66
2022-09-15T07:40:10.854Z,99445.78
2022-09-15T07:43:19.612Z,99456.03
2022-09-15T07:46:37.584Z,99463.12
2022-09-15T07:49:46.613Z,99456.09
2022-09-15T07:53:02.593Z,99451.81
2022-09-15T07:56:17.609Z,99450.63
2022-09-15T07:59:32.612Z,99436.19
2022-09-15T08:02:47.589Z,99440.50
2022-09-15T08:05:49.643Z,99460.81
2022-09-15T08:09:04.844Z,99467.41
2022-09-15T08:12:08.098Z,99454.53
2022-09-15T08:15:23.620Z,99459.59
2022-09-15T08:18:39.624Z,99451.44
2022-09-15T08:21:48.662Z,99458.47
2022-09-15T08:24:57.521Z,99465.13
2022-09-15T08:28:06.612Z,99461.19
2022-09-15T08:31:22.663Z,99451.81
2022-09-15T08:34:31.416Z,99458.06
2022-09-15T08:37:40.616Z,99464.28
2022-09-15T08:40:50.109Z,99440.69
2022-09-15T08:44:04.611Z,99434.75
2022-09-15T08:47:45.624Z,99433.94
2022-09-15T08:50:58.058Z,99438.47
2022-09-15T08:54:13.633Z,99429.84
2022-09-15T08:57:31.627Z,99433.06
2022-09-15T09:00:43.249Z,99422.84
2022-09-15T09:04:00.702Z,99419.41
2022-09-15T09:07:37.051Z,99423.22
2022-09-15T09:10:59.607Z,99409.69
2022-09-15T09:14:23.625Z,99410.78
2022-09-15T09:17:56.584Z,99407.41
2022-09-15T09:21:36.609Z,99402.16
2022-09-15T09:24:54.661Z,99393.16
2022-09-15T09:28:23.995Z,99388.12
2022-09-15T09:31:41.642Z,99389.31
2022-09-15T09:34:54.989Z,99375.37
2022-09-15T09:38:10.638Z,99383.84
2022-09-15T09:41:29.623Z,99390.34
2022-09-15T09:44:46.621Z,99378.75
2022-09-15T09:48:02.084Z,99386.13
2022-09-15T09:51:54.639Z,99382.03
2022-09-15T09:55:07.640Z,99375.72
2022-09-15T09:58:29.692Z,99365.72
2022-09-15T10:01:44.697Z,99360.94
2022-09-15T10:04:59.670Z,99351.38
2022-09-15T10:08:22.635Z,99346.28
2022-09-15T10:11:46.664Z,99347.13
2022-09-15T10:14:58.264Z,99336.81
2022-09-15T10:18:13.640Z,99334.78
2022-09-15T10:21:24.396Z,99327.53
2022-09-15T10:24:46.643Z,99319.34
2022-09-15T10:28:17.639Z,99306.59
2022-09-15T10:31:32.307Z,99296.34
2022-09-15T10:34:48.782Z,99287.81
2022-09-15T10:38:14.926Z,99282.56
2022-09-15T10:41:34.661Z,99283.87
2022-09-15T10:45:07.657Z,99284.19
2022-09-15T10:48:24.707Z,99292.44
2022-09-15T10:51:52.684Z,99293.97
2022-09-15T10:55:27.635Z,99289.31
2022-09-15T10:59:01.647Z,99286.19
2022-09-15T11:02:19.765Z,99295.88
2022-09-15T11:06:01.707Z,99287.91
2022-09-15T11:09:19.691Z,99292.72
2022-09-15T11:12:52.352Z,99309.06
2022-09-15T11:16:08.673Z,99294.97
2022-09-15T11:19:32.688Z,99292.00
2022-09-15T11:22:50.398Z,99294.31
2022-09-15T11:26:18.682Z,99301.81
2022-09-15T11:29:58.434Z,99303.84
2022-09-15T11:33:29.666Z,99288.88
2022-09-15T11:36:50.678Z,99293.75
2022-09-15T11:40:27.600Z,99287.81
2022-09-15T11:43:40.670Z,99279.25
2022-09-15T11:47:04.830Z,99278.25
2022-09-15T11:50:28.691Z,99262.81
2022-09-15T11:53:36.662Z,99242.34
2022-09-15T11:56:47.119Z,99233.81
2022-09-15T12:00:09.674Z,99217.94
2022-09-15T12:03:38.684Z,99218.59
2022-09-15T12:07:12.330Z,99211.91
2022-09-15T12:10:41.677Z,99233.16
2022-09-15T12:13:57.664Z,99227.41
2022-09-15T12:17:07.728Z,99233.59
2022-09-15T12:20:42.671Z,99220.06
2022-09-15T12:23:58.357Z,99218.56
2022-09-15T12:27:24.659Z,99211.50
2022-09-15T12:30:45.690Z,99201.34
2022-09-15T12:34:08.748Z,99199.72
2022-09-15T12:37:18.153Z,99204.84
2022-09-15T12:40:36.727Z,99193.53
2022-09-15T12:43:38.724Z,99189.44
2022-09-15T12:47:00.682Z,99188.44
2022-09-15T12:50:21.729Z,99195.25
2022-09-15T12:53:59.037Z,99185.03
2022-09-15T12:57:25.691Z,99170.47
2022-09-15T13:01:06.868Z,99166.69
2022-09-15T13:04:32.680Z,99195.19
2022-09-15T13:08:03.714Z,99181.12
2022-09-15T13:11:40.753Z,99162.87
2022-09-15T13:15:10.737Z,99212.62
2022-09-15T13:18:21.935Z,99326.38
2022-09-15T13:21:39.695Z,99249.16
2022-09-15T13:25:01.698Z,99240.16
2022-09-15T13:28:18.728Z,99224.31
2022-09-15T13:31:55.715Z,99210.31
2022-09-15T13:35:48.712Z,99198.97
2022-09-15T13:38:59.736Z,99212.81
2022-09-15T13:42:26.452Z,99225.84
2022-09-15T13:46:13.759Z,99215.81
2022-09-15T13:50:01.739Z,99228.59
2022-09-15T13:53:13.727Z,99225.44
2022-09-15T13:56:32.781Z,99212.22
2022-09-15T13:59:47.712Z,99214.53
2022-09-15T14:03:16.697Z,99226.22
2022-09-15T14:06:43.714Z,99210.16
2022-09-15T14:09:58.698Z,99196.22
2022-09-15T14:13:01.928Z,99208.19
2022-09-15T14:16:41.759Z,99243.53
2022-09-15T14:19:52.395Z,99215.47
2022-09-15T14:23:01.701Z,99197.59
2022-09-15T14:26:20.713Z,99199.09
2022-09-15T14:29:47.701Z,99212.72
2022-09-15T14:33:08.708Z,99229.03
2022-09-15T14:36:37.732Z,99237.22
2022-09-15T14:39:39.579Z,99238.37
2022-09-15T14:42:55.718Z,99244.19
2022-09-15T14:46:13.838Z,99265.94
2022-09-15T14:49:29.717Z,99250.72
2022-09-15T14:52:37.917Z,99239.44
2022-09-15T14:56:08.328Z,99239.37
2022-09-15T14:59:26.969Z,99230.06
2022-09-15T15:02:53.751Z,99269.72
2022-09-15T15:06:28.432Z,99299.66
2022-09-15T15:09:41.615Z,99273.22
2022-09-15T15:13:08.726Z,99271.66
2022-09-15T15:16:30.406Z,99262.00
2022-09-15T15:19:48.744Z,99282.25
2022-09-15T15:23:22.716Z,99297.34
2022-09-15T15:26:43.733Z,99287.28
2022-09-15T15:29:58.717Z,99251.88
2022-09-15T15:33:29.739Z,99221.19
2022-09-15T15:36:38.281Z,99226.56
2022-09-15T15:39:53.773Z,99218.44
2022-09-15T15:43:29.743Z,99258.84
2022-09-15T15:46:59.736Z,99271.66
2022-09-15T15:50:24.723Z,99262.41
2022-09-15T15:53:32.711Z,99268.25
2022-09-15T15:56:41.292Z,99267.13
2022-09-15T15:59:57.790Z,99253.16
2022-09-15T16:03:05.753Z,99234.62
2022-09-15T16:06:14.313Z,99222.97
2022-09-15T16:09:24.742Z,99221.44
2022-09-15T16:12:35.375Z,99198.47
2022-09-15T16:15:51.828Z,99197.34
2022-09-15T16:18:53.752Z,99197.31
2022-09-15T16:22:09.782Z,99204.66
2022-09-15T16:25:16.901Z,99194.97
2022-09-15T16:28:31.756Z,99182.56
2022-09-15T16:31:46.805Z,99157.63
2022-09-15T16:35:01.727Z,99150.13
2022-09-15T16:38:03.613Z,99156.75
2022-09-15T16:41:23.732Z,99171.06
2022-09-15T16:44:38.726Z,99173.38
2022-09-15T16:47:53.741Z,99169.13
2022-09-15T16:51:27.902Z,99177.28
2022-09-15T16:54:45.713Z,99183.81
2022-09-15T16:57:47.721Z,99196.13
2022-09-15T17:01:03.894Z,99206.59
2022-09-15T17:04:20.727Z,99211.62
2022-09-15T17:07:36.613Z,99213.91
2022-09-15T17:10:53.037Z,99202.53
2022-09-15T17:14:01.294Z,99207.47
2022-09-15T17:17:10.750Z,99216.00
2022-09-15T17:20:26.753Z,99215.22
2022-09-15T17:23:35.339Z,99215.91
2022-09-15T17:26:49.975Z,99214.75
2022-09-15T17:30:06.070Z,99209.69
2022-09-15T17:33:19.744Z,99199.63
2022-09-15T17:36:28.660Z,99205.03
2022-09-15T17:39:43.848Z,99196.50
2022-09-15T17:42:53.771Z,99197.22
2022-09-15T17:46:02.278Z,99193.69
2022-09-15T17:49:16.760Z,99195.16
2022-09-15T17:52:25.319Z,99179.19
2022-09-15T17:55:40.908Z,99200.50
2022-09-15T17:58:55.905Z,99201.31
2022-09-15T18:01:58.134Z,99183.81
2022-09-15T18:05:15.059Z,99187.63
2022-09-15T18:08:24.047Z,99194.53
2022-09-15T18:11:32.679Z,99202.97
2022-09-15T18:14:41.028Z,99197.12
2022-09-15T18:17:58.075Z,99197.53
2022-09-15T18:21:17.127Z,99216.94
2022-09-15T18:24:31.752Z,99218.94
2022-09-15T18:27:33.751Z,99221.16
2022-09-15T18:30:57.192Z,99223.84
2022-09-15T18:34:12.024Z,99223.84
2022-09-15T18:37:21.067Z,99230.00
2022-09-15T18:40:36.004Z,99223.34
2022-09-15T18:43:38.156Z,99229.50
2022-09-15T18:46:52.900Z,99222.09
2022-09-15T18:49:54.690Z,99225.94
2022-09-15T18:53:13.624Z,99233.63
2022-09-15T18:56:28.810Z,99223.50
2022-09-15T18:59:30.949Z,99231.69
2022-09-15T19:02:46.036Z,99235.59
2022-09-15T19:05:55.116Z,99238.72
2022-09-15T19:09:03.677Z,99245.31
2022-09-15T19:12:19.213Z,99245.72
2022-09-15T19:15:27.448Z,99249.22
2022-09-15T19:18:41.885Z,99247.31
2022-09-15T19:21:58.046Z,99251.44
2022-09-15T19:25:08.698Z,99251.88
2022-09-15T19:28:20.154Z,99252.19
2022-09-15T19:31:41.676Z,99244.81
2022-09-15T19:34:51.983Z,99260.22
2022-09-15T19:38:00.764Z,99259.88
2022-09-15T19:41:18.791Z,99266.88
2022-09-15T19:44:20.775Z,99259.88
2022-09-15T19:47:35.799Z,99250.91
2022-09-15T19:50:54.888Z,99260.97
2022-09-15T19:53:58.043Z,99266.75
2022-09-15T19:57:12.936Z,99270.63
2022-09-15T20:00:27.782Z,99272.44
2022-09-15T20:03:32.507Z,99273.94
2022-09-15T20:06:47.715Z,99277.03
2022-09-15T20:09:56.763Z,99273.12
2022-09-15T20:13:11.724Z,99280.53
2022-09-15T20:16:19.048Z,99289.09
2022-09-15T20:19:33.724Z,99302.28
2022-09-15T20:22:42.200Z,99300.03
2022-09-15T20:26:04.718Z,99297.66
2022-09-15T20:29:20.763Z,99305.44
2022-09-15T20:32:42.820Z,99302.72
2022-09-15T20:35:51.285Z,99294.16
2022-09-15T20:38:59.773Z,99301.53
2022-09-15T20:42:14.777Z,99302.66
2022-09-15T20:45:32.778Z,99303.03
2022-09-15T20:48:50.759Z,99312.28
2022-09-15T20:51:52.531Z,99315.00
2022-09-15T20:55:07.762Z,99327.84
2022-09-15T20:58:22.790Z,99339.41
2022-09-15T21:01:43.765Z,99337.06
2022-09-15T21:04:51.779Z,99335.41
2022-09-15T21:08:06.754Z,99323.84
2022-09-15T21:11:17.923Z,99331.63
2022-09-15T21:14:32.771Z,99340.97
2022-09-15T21:17:40.804Z,99338.59
2022-09-15T21:20:58.940Z,99344.41
2022-09-15T21:24:09.795Z,99337.06
2022-09-15T21:27:18.344Z,99333.59
2022-09-15T21:30:26.786Z,99340.19
2022-09-15T21:33:42.761Z,99330.13
2022-09-15T21:36:44.467Z,99339.81
2022-09-15T21:39:58.815Z,99333.97
2022-09-15T21:43:14.782Z,99339.81
2022-09-15T21:46:32.783Z,99340.25
2022-09-15T21:49:40.776Z,99348.38
2022-09-15T21:52:55.782Z,99337.97
2022-09-15T21:56:12.787Z,99355.66
2022-09-15T21:59:14.594Z,99371.56
2022-09-15T22:02:29.850Z,99374.28
2022-09-15T22:05:31.692Z,99392.50
2022-09-15T22:08:46.892Z,99392.50
2022-09-15T22:11:57.056Z,99395.91
2022-09-15T22:15:05.783Z,99405.13
2022-09-15T22:18:20.805Z,99408.06
2022-09-15T22:21:30.283Z,99402.47
2022-09-15T22:24:46.205Z,99400.03
2022-09-15T22:27:48.079Z,99404.94
2022-09-15T22:31:12.865Z,99410.31
2022-09-15T22:34:14.823Z,99417.91
2022-09-15T22:37:30.781Z,99421.00
2022-09-15T22:40:39.445Z,99432.19
2022-09-15T22:43:55.869Z,99430.59
2022-09-15T22:47:03.815Z,99437.50
2022-09-15T22:50:18.843Z,99441.38
2022-09-15T22:53:20.650Z,99449.94
2022-09-15T22:56:35.810Z,99447.28
2022-09-15T22:59:37.493Z,99460.03
2022-09-15T23:02:51.807Z,99467.75
2022-09-15T23:06:00.691Z,99473.91
2022-09-15T23:09:17.797Z,99478.16
2022-09-15T23:12:36.821Z,99487.78
2022-09-15T23:15:38.587Z,99491.63
2022-09-15T23:18:53.789Z,99504.66
2022-09-15T23:22:05.785Z,99513.22
2022-09-15T23:25:20.791Z,99516.97
2022-09-15T23:28:30.255Z,99506.94
2022-09-15T23:31:51.880Z,99500.63
2022-09-15T23:34:53.851Z,99510.69
2022-09-15T23:38:08.783Z,99512.16
2022-09-15T23:41:18.835Z,99511.13
2022-09-15T23:44:27.335Z,99499.94
2022-09-15T23:47:41.837Z,99499.84
2022-09-15T23:50:50.375Z,99495.22
2022-09-15T23:54:04.822Z,99508.78
2022-09-15T23:57:19.834Z,99507.47
